createdAt,value
2023-05-23T00:01:25.719Z,100.00
2023-05-23T00:03:56.545Z,100.00
2023-05-23T00:06:32.159Z,100.00
2023-05-23T00:09:03.129Z,100.00
2023-05-23T00:11:31.264Z,100.00
2023-05-23T00:14:03.614Z,100.00
2023-05-23T00:16:34.295Z,100.00
2023-05-23T00:19:05.538Z,100.00
2023-05-23T00:21:34.074Z,100.00
2023-05-23T00:24:04.986Z,100.00
2023-05-23T00:26:33.503Z,100.00
2023-05-23T00:29:04.945Z,100.00
2023-05-23T00:31:33.246Z,100.00
2023-05-23T00:34:01.500Z,100.00
2023-05-23T00:36:29.673Z,100.00
2023-05-23T00:38:57.995Z,100.00
2023-05-23T00:41:29.209Z,100.00
2023-05-23T00:44:00.056Z,100.00
2023-05-23T00:46:29.990Z,100.00
2023-05-23T00:48:58.554Z,100.00
2023-05-23T00:51:28.202Z,100.00
2023-05-23T00:53:56.664Z,100.00
2023-05-23T00:56:26.987Z,100.00
2023-05-23T00:58:55.436Z,100.00
2023-05-23T01:01:24.546Z,100.00
2023-05-23T01:04:04.682Z,100.00
2023-05-23T01:06:36.460Z,100.00
2023-05-23T01:09:04.908Z,100.00
2023-05-23T01:11:42.222Z,100.00
2023-05-23T01:14:22.293Z,100.00
2023-05-23T01:17:03.835Z,100.00
2023-05-23T01:19:47.347Z,100.00
2023-05-23T01:22:49.486Z,100.00
2023-05-23T01:25:36.391Z,100.00
2023-05-23T01:28:10.050Z,100.00
2023-05-23T01:30:41.988Z,100.00
2023-05-23T01:33:13.487Z,100.00
2023-05-23T01:35:43.942Z,100.00
2023-05-23T01:38:12.452Z,100.00
2023-05-23T01:40:41.898Z,100.00
2023-05-23T01:43:14.926Z,100.00
2023-05-23T01:45:44.126Z,100.00
2023-05-23T01:48:14.724Z,100.00
2023-05-23T01:50:45.640Z,100.00
2023-05-23T01:53:19.851Z,100.00
2023-05-23T01:55:48.910Z,100.00
2023-05-23T01:58:22.036Z,100.00
2023-05-23T02:00:50.537Z,100.00
2023-05-23T02:03:20.169Z,100.00
2023-05-23T02:05:49.790Z,100.00
2023-05-23T02:08:22.517Z,100.00
2023-05-23T02:10:51.911Z,100.00
2023-05-23T02:13:21.832Z,100.00
2023-05-23T02:15:50.103Z,100.00
2023-05-23T02:18:18.467Z,100.00
2023-05-23T02:20:47.061Z,100.00
2023-05-23T02:23:15.313Z,100.00
2023-05-23T02:25:44.874Z,100.00
2023-05-23T02:28:15.864Z,100.00
2023-05-23T02:30:43.856Z,100.00
2023-05-23T02:33:12.402Z,100.00
2023-05-23T02:35:41.036Z,100.00
2023-05-23T02:38:11.575Z,100.00
2023-05-23T02:40:42.203Z,100.00
2023-05-23T02:43:12.969Z,100.00
2023-05-23T02:45:41.400Z,100.00
2023-05-23T02:48:17.689Z,100.00
2023-05-23T02:50:49.081Z,100.00
2023-05-23T02:53:24.435Z,100.00
2023-05-23T02:55:52.771Z,100.00
2023-05-23T02:58:21.192Z,100.00
2023-05-23T03:00:49.440Z,100.00
2023-05-23T03:03:18.684Z,100.00
2023-05-23T03:05:47.038Z,100.00
2023-05-23T03:08:15.358Z,100.00
2023-05-23T03:10:43.547Z,100.00
2023-05-23T03:13:12.105Z,100.00
2023-05-23T03:15:41.148Z,100.00
2023-05-23T03:18:09.396Z,100.00
2023-05-23T03:20:37.784Z,100.00
2023-05-23T03:23:06.038Z,100.00
2023-05-23T03:25:35.029Z,100.00
2023-05-23T03:28:03.161Z,100.00
2023-05-23T03:30:31.386Z,100.00
2023-05-23T03:32:59.498Z,100.00
2023-05-23T03:35:27.747Z,100.00
2023-05-23T03:37:56.433Z,100.00
2023-05-23T03:40:24.757Z,100.00
2023-05-23T03:43:04.816Z,100.00
2023-05-23T03:45:34.398Z,100.00
2023-05-23T03:48:03.965Z,100.00
2023-05-23T03:50:32.283Z,100.00
2023-05-23T03:53:00.653Z,100.00
2023-05-23T03:55:31.963Z,100.00
2023-05-23T03:58:00.746Z,100.00
2023-05-23T04:00:28.916Z,100.00
2023-05-23T04:02:57.487Z,99.83
2023-05-23T04:05:26.385Z,98.72
2023-05-23T04:07:54.923Z,99.18
2023-05-23T04:10:23.238Z,98.96
2023-05-23T04:13:09.951Z,98.85
2023-05-23T04:15:40.071Z,98.68
2023-05-23T04:18:11.613Z,98.43
2023-05-23T04:20:39.751Z,98.24
2023-05-23T04:23:07.796Z,97.58
2023-05-23T04:25:39.752Z,97.05
2023-05-23T04:28:20.797Z,96.70
2023-05-23T04:30:52.398Z,96.65
2023-05-23T04:33:24.934Z,95.78
2023-05-23T04:35:53.447Z,94.44
2023-05-23T04:38:23.107Z,94.66
2023-05-23T04:40:52.830Z,94.43
2023-05-23T04:43:42.631Z,94.07
2023-05-23T04:46:45.655Z,92.56
2023-05-23T04:49:23.921Z,90.68
2023-05-23T04:51:52.648Z,90.17
2023-05-23T04:54:26.826Z,89.52
2023-05-23T04:56:58.532Z,89.88
2023-05-23T04:59:28.538Z,87.88
2023-05-23T05:01:57.263Z,87.27
2023-05-23T05:04:28.216Z,84.18
2023-05-23T05:07:29.553Z,82.40
2023-05-23T05:10:06.246Z,82.16
2023-05-23T05:12:35.673Z,81.74
2023-05-23T05:15:14.255Z,80.51
2023-05-23T05:17:55.049Z,79.40
2023-05-23T05:20:34.710Z,77.42
2023-05-23T05:23:03.765Z,75.53
2023-05-23T05:25:36.466Z,74.60
2023-05-23T05:28:06.583Z,74.13
2023-05-23T05:30:46.461Z,73.01
2023-05-23T05:33:15.208Z,68.90
2023-05-23T05:35:44.121Z,67.06
2023-05-23T05:38:15.783Z,66.01
2023-05-23T05:40:47.361Z,65.59
2023-05-23T05:43:16.328Z,64.07
2023-05-23T05:46:03.493Z,63.45
2023-05-23T05:48:36.279Z,63.18
2023-05-23T05:51:10.641Z,62.57
2023-05-23T05:54:15.454Z,61.47
2023-05-23T05:56:47.818Z,61.68
2023-05-23T05:59:32.326Z,61.01
2023-05-23T06:02:08.381Z,60.40
2023-05-23T06:04:37.276Z,60.37
2023-05-23T06:07:08.004Z,60.45
2023-05-23T06:09:54.671Z,60.09
2023-05-23T06:12:27.721Z,59.94
2023-05-23T06:14:56.226Z,60.85
2023-05-23T06:17:28.753Z,60.93
2023-05-23T06:19:57.124Z,62.07
2023-05-23T06:22:28.262Z,62.07
2023-05-23T06:24:56.779Z,62.72
2023-05-23T06:27:29.344Z,63.66
2023-05-23T06:29:57.794Z,64.08
2023-05-23T06:32:26.245Z,64.29
2023-05-23T06:34:59.602Z,65.25
2023-05-23T06:37:27.745Z,66.13
2023-05-23T06:39:57.525Z,66.33
2023-05-23T06:42:27.337Z,66.66
2023-05-23T06:45:08.010Z,66.74
2023-05-23T06:47:37.699Z,66.97
2023-05-23T06:50:06.763Z,67.32
2023-05-23T06:52:37.186Z,67.50
2023-05-23T06:55:06.765Z,68.04
2023-05-23T06:57:37.222Z,68.49
2023-05-23T07:00:06.297Z,69.16
2023-05-23T07:02:40.283Z,68.91
2023-05-23T07:05:13.187Z,68.91
2023-05-23T07:07:49.484Z,69.26
2023-05-23T07:10:19.940Z,69.57
2023-05-23T07:12:48.548Z,69.87
2023-05-23T07:15:17.196Z,70.58
2023-05-23T07:17:55.877Z,70.93
2023-05-23T07:20:26.208Z,70.56
2023-05-23T07:23:01.546Z,70.78
2023-05-23T07:25:30.615Z,70.87
2023-05-23T07:28:01.390Z,70.94
2023-05-23T07:30:34.366Z,70.94
2023-05-23T07:33:02.733Z,70.98
2023-05-23T07:35:31.171Z,71.15
2023-05-23T07:38:10.315Z,70.94
2023-05-23T07:40:40.563Z,70.87
2023-05-23T07:43:17.528Z,70.70
2023-05-23T07:45:45.789Z,70.90
2023-05-23T07:48:14.382Z,70.88
2023-05-23T07:50:43.713Z,70.38
2023-05-23T07:53:14.911Z,70.32
2023-05-23T07:55:43.332Z,69.83
2023-05-23T07:58:12.024Z,69.84
2023-05-23T08:00:41.963Z,69.45
2023-05-23T08:03:13.624Z,69.61
2023-05-23T08:05:50.471Z,69.25
2023-05-23T08:08:24.295Z,68.92
2023-05-23T08:10:52.544Z,68.49
2023-05-23T08:13:37.115Z,68.59
2023-05-23T08:16:28.252Z,67.81
2023-05-23T08:18:57.540Z,67.56
2023-05-23T08:21:27.428Z,67.54
2023-05-23T08:23:55.885Z,67.20
2023-05-23T08:26:26.595Z,66.35
2023-05-23T08:29:03.756Z,65.91
2023-05-23T08:31:37.257Z,65.77
2023-05-23T08:34:07.753Z,64.96
2023-05-23T08:36:40.243Z,64.66
2023-05-23T08:39:20.748Z,64.81
2023-05-23T08:42:17.035Z,64.79
2023-05-23T08:44:45.568Z,64.66
2023-05-23T08:47:19.959Z,64.60
2023-05-23T08:50:09.177Z,64.98
2023-05-23T08:52:45.960Z,64.32
2023-05-23T08:55:17.774Z,63.93
2023-05-23T08:57:57.682Z,64.67
2023-05-23T09:00:36.542Z,64.13
2023-05-23T09:03:07.333Z,63.43
2023-05-23T09:06:02.715Z,63.37
2023-05-23T09:08:37.179Z,63.50
2023-05-23T09:11:07.112Z,63.37
2023-05-23T09:13:37.733Z,62.95
2023-05-23T09:16:15.397Z,63.03
2023-05-23T09:19:00.779Z,62.59
2023-05-23T09:21:35.974Z,61.73
2023-05-23T09:24:19.373Z,61.55
2023-05-23T09:26:51.155Z,61.69
2023-05-23T09:29:21.651Z,61.84
2023-05-23T09:31:52.361Z,61.89
2023-05-23T09:34:21.955Z,62.10
2023-05-23T09:36:55.837Z,61.70
2023-05-23T09:39:26.485Z,60.88
2023-05-23T09:41:54.686Z,60.39
2023-05-23T09:44:33.404Z,60.57
2023-05-23T09:47:07.472Z,59.75
2023-05-23T09:49:37.718Z,59.93
2023-05-23T09:52:06.017Z,59.90
2023-05-23T09:54:37.637Z,60.14
2023-05-23T09:57:11.200Z,59.62
2023-05-23T09:59:41.556Z,59.95
2023-05-23T10:02:12.421Z,59.98
2023-05-23T10:04:48.687Z,59.17
2023-05-23T10:07:22.479Z,58.52
2023-05-23T10:10:03.496Z,58.84
2023-05-23T10:12:50.117Z,59.23
2023-05-23T10:15:49.661Z,58.39
2023-05-23T10:18:26.370Z,58.48
2023-05-23T10:21:24.655Z,58.66
2023-05-23T10:23:57.299Z,57.89
2023-05-23T10:26:28.699Z,59.57
2023-05-23T10:28:58.319Z,60.09
2023-05-23T10:31:30.455Z,59.13
2023-05-23T10:34:19.540Z,59.15
2023-05-23T10:37:07.937Z,58.44
2023-05-23T10:39:55.081Z,56.95
2023-05-23T10:42:53.749Z,55.08
2023-05-23T10:45:24.468Z,54.59
2023-05-23T10:47:53.806Z,56.09
2023-05-23T10:50:41.895Z,55.82
2023-05-23T10:55:49.313Z,55.92
2023-05-23T10:58:23.086Z,55.67
2023-05-23T11:00:56.185Z,54.86
2023-05-23T11:03:32.027Z,55.05
2023-05-23T11:06:01.153Z,56.85
2023-05-23T11:08:47.160Z,57.22
2023-05-23T11:11:17.381Z,56.50
2023-05-23T11:14:00.046Z,55.88
2023-05-23T11:16:30.539Z,55.27
2023-05-23T11:19:22.102Z,54.91
2023-05-23T11:21:53.909Z,55.78
2023-05-23T11:24:22.430Z,55.67
2023-05-23T11:27:04.220Z,55.96
2023-05-23T11:29:35.532Z,55.73
2023-05-23T11:32:16.850Z,54.09
2023-05-23T11:34:45.832Z,53.45
2023-05-23T11:37:14.297Z,54.34
2023-05-23T11:39:42.545Z,54.40
2023-05-23T11:42:10.614Z,54.78
2023-05-23T11:44:38.736Z,54.54
2023-05-23T11:47:09.041Z,53.92
2023-05-23T11:49:40.377Z,52.41
2023-05-23T11:52:31.925Z,52.01
2023-05-23T11:55:16.419Z,50.89
2023-05-23T11:57:46.352Z,49.61
2023-05-23T12:00:15.318Z,50.59
2023-05-23T12:02:47.912Z,51.22
2023-05-23T12:05:16.728Z,51.39
2023-05-23T12:07:50.766Z,51.47
2023-05-23T12:10:22.020Z,50.54
2023-05-23T12:12:51.932Z,50.52
2023-05-23T12:19:18.043Z,44.01
2023-05-23T12:22:05.784Z,41.82
2023-05-23T12:24:55.086Z,42.79
2023-05-23T12:27:39.771Z,44.05
2023-05-23T12:30:18.329Z,44.14
2023-05-23T12:32:47.590Z,43.93
2023-05-23T12:35:26.005Z,44.07
2023-05-23T12:37:56.739Z,43.32
2023-05-23T12:40:25.014Z,42.81
2023-05-23T12:42:56.830Z,42.38
2023-05-23T12:45:36.883Z,41.89
2023-05-23T12:48:07.696Z,40.73
2023-05-23T12:51:03.302Z,41.26
2023-05-23T12:53:36.577Z,40.61
2023-05-23T12:56:05.620Z,41.34
2023-05-23T12:58:35.278Z,41.84
2023-05-23T13:01:03.730Z,42.12
2023-05-23T13:03:32.352Z,42.05
2023-05-23T13:06:00.741Z,41.65
2023-05-23T13:08:29.685Z,41.48
2023-05-23T13:10:57.989Z,41.29
2023-05-23T13:13:26.842Z,41.07
2023-05-23T13:16:04.590Z,40.05
2023-05-23T13:18:32.765Z,39.83
2023-05-23T13:21:01.504Z,40.07
2023-05-23T13:23:30.976Z,39.96
2023-05-23T13:25:59.166Z,40.72
2023-05-23T13:28:27.385Z,40.89
2023-05-23T13:30:55.607Z,41.22
2023-05-23T13:33:23.873Z,41.88
2023-05-23T13:35:52.602Z,41.76
2023-05-23T13:38:21.116Z,41.44
2023-05-23T13:40:52.665Z,41.09
2023-05-23T13:43:24.014Z,40.96
2023-05-23T13:45:53.680Z,41.31
2023-05-23T13:48:21.816Z,41.48
2023-05-23T13:50:50.101Z,42.29
2023-05-23T13:53:18.222Z,42.10
2023-05-23T13:55:46.708Z,42.29
2023-05-23T13:58:20.941Z,42.71
2023-05-23T14:00:51.274Z,43.20
2023-05-23T14:03:25.622Z,43.82
2023-05-23T14:05:54.863Z,44.35
2023-05-23T14:08:25.967Z,49.19
2023-05-23T14:10:54.046Z,52.36
2023-05-23T14:13:23.249Z,54.29
2023-05-23T14:15:52.068Z,56.60
2023-05-23T14:18:27.419Z,58.51
2023-05-23T14:20:55.551Z,60.19
2023-05-23T14:23:26.286Z,61.70
2023-05-23T14:26:00.768Z,64.33
2023-05-23T14:28:29.298Z,66.30
2023-05-23T14:30:57.583Z,67.48
2023-05-23T14:33:26.811Z,68.17
2023-05-23T14:35:57.178Z,70.32
2023-05-23T14:38:26.078Z,69.54
2023-05-23T14:40:54.938Z,69.37
2023-05-23T14:43:27.154Z,70.41
2023-05-23T14:45:55.561Z,69.79
2023-05-23T14:48:23.805Z,67.87
2023-05-23T14:51:02.534Z,66.88
2023-05-23T14:53:36.676Z,64.29
2023-05-23T14:56:04.692Z,62.37
2023-05-23T14:58:33.776Z,61.53
2023-05-23T15:01:02.580Z,61.50
2023-05-23T15:03:30.656Z,62.10
2023-05-23T15:06:00.221Z,61.74
2023-05-23T15:08:30.600Z,60.97
2023-05-23T15:10:59.132Z,61.14
2023-05-23T15:13:33.526Z,61.12
2023-05-23T15:16:04.838Z,60.30
2023-05-23T15:18:41.554Z,59.79
2023-05-23T15:21:10.886Z,59.65
2023-05-23T15:23:39.168Z,58.56
2023-05-23T15:26:13.440Z,58.23
2023-05-23T15:28:41.766Z,58.12
2023-05-23T15:31:09.966Z,57.67
2023-05-23T15:33:41.055Z,57.05
2023-05-23T15:36:17.695Z,56.32
2023-05-23T15:38:47.367Z,55.54
2023-05-23T15:41:33.140Z,55.37
2023-05-23T15:44:01.416Z,55.32
2023-05-23T15:46:32.605Z,55.60
2023-05-23T15:49:10.280Z,55.09
2023-05-23T15:51:47.875Z,53.77
2023-05-23T15:54:22.771Z,54.03
2023-05-23T15:56:56.617Z,53.68
2023-05-23T15:59:24.943Z,53.91
2023-05-23T16:02:25.166Z,53.87
2023-05-23T16:05:23.369Z,53.58
2023-05-23T16:07:56.243Z,54.00
2023-05-23T16:10:28.700Z,53.63
2023-05-23T16:13:10.104Z,53.94
2023-05-23T16:16:22.118Z,53.21
2023-05-23T16:18:50.734Z,53.36
2023-05-23T16:21:26.914Z,53.39
2023-05-23T16:24:11.107Z,53.09
2023-05-23T16:27:09.497Z,53.01
2023-05-23T16:29:46.463Z,53.05
2023-05-23T16:32:16.364Z,52.96
2023-05-23T16:34:53.306Z,52.95
2023-05-23T16:37:53.031Z,52.69
2023-05-23T16:40:28.805Z,52.91
2023-05-23T16:43:15.162Z,52.72
2023-05-23T16:45:43.968Z,51.88
2023-05-23T16:48:14.170Z,52.46
2023-05-23T16:50:44.979Z,52.53
2023-05-23T16:53:13.350Z,52.87
2023-05-23T16:55:54.055Z,52.88
2023-05-23T16:58:32.663Z,53.19
2023-05-23T17:01:07.982Z,53.66
2023-05-23T17:03:36.644Z,53.62
2023-05-23T17:06:08.332Z,53.98
2023-05-23T17:08:52.386Z,54.33
2023-05-23T17:11:23.101Z,54.71
2023-05-23T17:13:54.676Z,54.99
2023-05-23T17:16:37.903Z,55.41
2023-05-23T17:19:09.596Z,55.64
2023-05-23T17:21:43.559Z,55.83
2023-05-23T17:24:13.613Z,56.06
2023-05-23T17:26:42.229Z,56.23
2023-05-23T17:29:10.851Z,56.40
2023-05-23T17:31:39.424Z,56.37
2023-05-23T17:34:43.138Z,56.75
2023-05-23T17:37:10.075Z,57.12
2023-05-23T17:39:51.867Z,57.53
2023-05-23T17:42:23.058Z,57.89
2023-05-23T17:45:28.828Z,58.26
2023-05-23T17:48:17.364Z,58.85
2023-05-23T17:50:51.992Z,58.89
2023-05-23T18:12:31.328Z,61.90
2023-05-23T18:14:13.698Z,62.53
2023-05-23T18:18:29.491Z,63.03
2023-05-23T18:21:35.908Z,63.83
2023-05-23T18:24:13.128Z,63.84
2023-05-23T18:26:46.001Z,64.34
2023-05-23T18:29:16.925Z,64.56
2023-05-23T18:31:45.819Z,64.46
2023-05-23T18:34:17.217Z,64.56
2023-05-23T18:36:45.754Z,64.68
2023-05-23T18:39:16.873Z,64.87
2023-05-23T18:41:56.961Z,65.18
2023-05-23T18:44:30.134Z,65.71
2023-05-23T18:47:21.479Z,66.00
2023-05-23T18:50:26.011Z,66.56
2023-05-23T18:52:57.014Z,66.83
2023-05-23T18:55:31.569Z,66.65
2023-05-23T18:57:59.816Z,66.88
2023-05-23T19:00:44.679Z,66.97
2023-05-23T19:03:16.585Z,67.14
2023-05-23T19:05:45.108Z,67.03
2023-05-23T19:08:17.186Z,67.06
2023-05-23T19:10:48.829Z,67.35
2023-05-23T19:13:23.349Z,67.37
2023-05-23T19:15:51.696Z,67.62
2023-05-23T19:18:20.687Z,67.86
2023-05-23T19:20:51.600Z,67.92
2023-05-23T19:23:19.635Z,68.48
2023-05-23T19:25:52.303Z,69.60
2023-05-23T19:28:22.201Z,70.39
2023-05-23T19:30:50.390Z,70.38
2023-05-23T19:33:22.240Z,67.76
2023-05-23T19:35:50.214Z,67.07
2023-05-23T19:38:18.878Z,67.28
2023-05-23T19:40:47.692Z,66.37
2023-05-23T19:43:15.771Z,65.47
2023-05-23T19:45:43.783Z,64.50
2023-05-23T19:48:12.276Z,64.39
2023-05-23T19:50:43.207Z,64.02
2023-05-23T19:53:16.481Z,63.98
2023-05-23T19:55:52.945Z,63.87
2023-05-23T19:58:43.358Z,64.02
2023-05-23T20:01:11.680Z,63.31
2023-05-23T20:03:57.703Z,63.06
2023-05-23T20:09:36.813Z,63.52
2023-05-23T20:12:39.553Z,63.78
2023-05-23T20:15:39.357Z,64.41
2023-05-23T20:18:22.374Z,64.54
2023-05-23T20:20:53.893Z,64.68
2023-05-23T20:23:24.337Z,64.75
2023-05-23T20:25:52.931Z,64.77
2023-05-23T20:28:23.297Z,65.00
2023-05-23T20:30:59.683Z,64.94
2023-05-23T20:33:37.408Z,65.24
2023-05-23T20:36:06.788Z,65.66
2023-05-23T20:38:35.328Z,65.89
2023-05-23T20:41:09.066Z,66.14
2023-05-23T20:43:39.862Z,66.77
2023-05-23T20:46:13.894Z,67.14
2023-05-23T20:48:42.311Z,67.56
2023-05-23T20:51:10.288Z,67.76
2023-05-23T20:53:40.556Z,67.93
2023-05-23T20:56:10.363Z,68.17
2023-05-23T20:58:40.244Z,68.50
2023-05-23T21:01:08.468Z,68.71
2023-05-23T21:03:36.765Z,69.20
2023-05-23T21:06:05.155Z,69.47
2023-05-23T21:08:34.632Z,69.46
2023-05-23T21:11:03.281Z,70.00
2023-05-23T21:13:31.370Z,70.78
2023-05-23T21:15:59.629Z,70.69
2023-05-23T21:18:27.558Z,70.29
2023-05-23T21:20:55.509Z,70.16
2023-05-23T21:23:23.855Z,70.34
2023-05-23T21:26:01.954Z,70.83
2023-05-23T21:28:30.372Z,72.71
2023-05-23T21:31:08.846Z,72.56
2023-05-23T21:33:36.858Z,71.65
2023-05-23T21:36:05.198Z,71.13
2023-05-23T21:38:39.923Z,70.78
2023-05-23T21:41:07.889Z,70.13
2023-05-23T21:43:35.704Z,69.88
2023-05-23T21:46:03.719Z,70.05
2023-05-23T21:48:31.586Z,70.06
2023-05-23T21:50:59.652Z,69.92
2023-05-23T21:53:27.635Z,69.82
2023-05-23T21:55:55.592Z,69.75
2023-05-23T21:58:23.555Z,69.68
2023-05-23T22:00:51.368Z,70.04
2023-05-23T22:03:19.415Z,70.15
2023-05-23T22:05:47.332Z,70.32
2023-05-23T22:08:16.234Z,70.09
2023-05-23T22:10:44.393Z,70.05
2023-05-23T22:13:12.438Z,70.20
2023-05-23T22:15:40.638Z,70.44
2023-05-23T22:18:08.509Z,70.74
2023-05-23T22:20:39.343Z,70.99
2023-05-23T22:23:09.405Z,70.87
2023-05-23T22:25:38.468Z,70.73
2023-05-23T22:28:06.503Z,70.96
2023-05-23T22:30:35.534Z,71.31
2023-05-23T22:33:03.502Z,71.29
2023-05-23T22:35:32.125Z,71.87
2023-05-23T22:38:00.087Z,72.39
2023-05-23T22:40:27.962Z,73.07
2023-05-23T22:42:55.833Z,73.32
2023-05-23T22:45:23.861Z,74.98
2023-05-23T22:47:54.315Z,76.80
2023-05-23T22:50:22.805Z,77.96
2023-05-23T22:52:50.795Z,79.69
2023-05-23T22:55:19.253Z,81.46
2023-05-23T22:57:47.193Z,82.76
2023-05-23T23:00:15.256Z,84.28
2023-05-23T23:02:44.617Z,85.24
2023-05-23T23:05:13.178Z,86.14
2023-05-23T23:07:41.334Z,85.89
2023-05-23T23:10:10.048Z,86.41
2023-05-23T23:12:38.301Z,86.95
2023-05-23T23:15:07.659Z,86.59
2023-05-23T23:17:35.677Z,86.53
2023-05-23T23:20:07.928Z,88.47
2023-05-23T23:22:36.624Z,89.22
2023-05-23T23:25:06.797Z,90.62
2023-05-23T23:27:34.754Z,90.01
2023-05-23T23:30:05.303Z,89.98
2023-05-23T23:32:34.543Z,89.99
2023-05-23T23:35:03.056Z,90.14
2023-05-23T23:37:30.884Z,90.28
2023-05-23T23:39:58.986Z,90.46
2023-05-23T23:42:27.177Z,91.79
2023-05-23T23:44:55.195Z,93.41
2023-05-23T23:47:23.301Z,96.23
2023-05-23T23:49:52.392Z,98.37
2023-05-23T23:52:20.669Z,99.99
2023-05-23T23:54:48.661Z,100.00
